Rechercher aéroport 
image banner adimage banner adimage banner ad
image banner ad

2PA4 - Boden

Situé à Lakewood, United States

ICAO - 2PA4, IATA -

Données fournies par Airmate  

Information générale

Coordonnées: N41°50'48" W75°26'47"
Élévation : 2120 feet MSL.
Variation magnétique : -12° East
Voir autres Aéroports à Pennsylvania

Données opérationnelles

Special qualification required
Heure actuelle UTC:
Heure actuelle locale:
Météo à : KMSV - Sullivan County Intl ( 56 km )
METAR: KMSV 150556Z AUTO 31003KT 1/4SM -RA FG OVC003 16/16 A2981 RMK AO2 SLP089 P0000 60000 T01560156 10178 20144 56004 RVRNO
Voir NOTAMs / SUP AIP / TFR affectant cet aéroport [VIEW]
Fréquences de communication: [VIEW]

Pistes:

Identifiant RWYQFULongueur (ft)Largeur (ft)SurfaceLDA (ft)
181900100GRASS
361900100GRASS

Coordonnées de l'aéroport

Adresse: Lakewood United States

Vue satellite de 2PA4